Time;durP1;ratioP1;P1;durP2;ratioP2;P2;SDS_P1;SDS_P2;PMS_P1;PMS_P2;Temp;Humidity;BMP_temperature;BMP_pressure;BME280_temperature;BME280_humidity;BME280_pressure;Samples;Min_cycle;Max_cycle;Signal;HPM_P1;HPM_P2
2023/07/07 00:00:50;;;;;;;16.08;10.50;;;31.90;95.80;;;;;;4901737;29;20229;-88
2023/07/07 00:03:22;;;;;;;13.40;10.18;;;31.80;95.90;;;;;;4905104;29;20213;-88
2023/07/07 00:06:02;;;;;;;12.80;10.60;;;31.60;96.30;;;;;;4888352;29;20217;-87
2023/07/07 00:08:42;;;;;;;12.88;9.65;;;31.60;95.80;;;;;;4877573;29;20211;-88
2023/07/07 00:11:14;;;;;;;44.85;12.02;;;31.70;96.20;;;;;;4883390;29;20202;-95
2023/07/07 00:13:46;;;;;;;71.30;14.05;;;31.60;96.10;;;;;;4885487;29;20261;-94
2023/07/07 00:16:20;;;;;;;17.65;11.50;;;31.60;96.70;;;;;;4888393;29;20217;-88
2023/07/07 00:18:51;;;;;;;11.85;10.43;;;31.60;96.90;;;;;;4883049;29;20700;-89
2023/07/07 00:21:25;;;;;;;12.77;9.55;;;31.70;96.20;;;;;;4879943;29;20329;-89
2023/07/07 00:23:58;;;;;;;11.18;10.07;;;31.60;97.60;;;;;;4882680;29;20676;-90
2023/07/07 00:26:32;;;;;;;12.82;9.60;;;31.70;96.40;;;;;;4877378;29;20244;-90
2023/07/07 00:29:03;;;;;;;13.60;10.77;;;31.70;96.70;;;;;;4886804;29;20747;-88
2023/07/07 00:31:34;;;;;;;12.32;10.00;;;31.60;97.60;;;;;;4878479;29;20242;-89
2023/07/07 00:34:06;;;;;;;10.68;9.55;;;31.70;97.60;;;;;;4879471;29;20204;-90
2023/07/07 00:36:47;;;;;;;10.80;9.70;;;31.60;97.20;;;;;;4887391;29;20217;-95
2023/07/07 00:39:22;;;;;;;12.93;9.10;;;31.50;97.70;;;;;;4889108;29;20206;-94
2023/07/07 00:41:54;;;;;;;14.32;9.93;;;31.40;97.20;;;;;;4885960;29;20240;-86
2023/07/07 00:44:30;;;;;;;12.80;8.90;;;31.30;97.80;;;;;;4872531;29;20206;-85
2023/07/07 00:47:01;;;;;;;10.15;9.05;;;31.20;97.90;;;;;;4878950;29;20261;-87
2023/07/07 00:49:33;;;;;;;13.05;9.13;;;31.20;98.70;;;;;;4875815;29;20301;-87
2023/07/07 00:52:12;;;;;;;10.32;9.18;;;31.30;97.90;;;;;;4880304;29;20432;-88
2023/07/07 00:54:44;;;;;;;17.48;9.60;;;31.40;98.30;;;;;;4876995;29;20246;-88
2023/07/07 00:57:15;;;;;;;9.93;8.90;;;31.50;97.40;;;;;;4876128;29;20741;-87
2023/07/07 00:59:48;;;;;;;10.70;9.60;;;31.80;98.30;;;;;;4882287;29;20293;-88
2023/07/07 01:02:24;;;;;;;10.70;8.90;;;32.30;96.80;;;;;;4884409;29;20238;-89
2023/07/07 01:04:59;;;;;;;15.48;8.38;;;32.40;97.20;;;;;;4880993;29;20322;-88
2023/07/07 01:07:36;;;;;;;24.13;9.05;;;32.50;97.20;;;;;;4880507;29;20574;-88
2023/07/07 01:10:08;;;;;;;11.23;9.10;;;32.90;96.10;;;;;;4880138;29;20226;-87
2023/07/07 01:12:40;;;;;;;25.70;9.20;;;33.20;96.20;;;;;;4880288;29;20624;-87
2023/07/07 01:15:12;;;;;;;9.52;8.52;;;32.90;96.30;;;;;;4881409;29;20242;-89
2023/07/07 01:17:56;;;;;;;20.70;9.18;;;32.90;96.30;;;;;;4880027;29;20293;-87
2023/07/07 01:20:33;;;;;;;11.23;8.10;;;32.80;95.70;;;;;;4878894;29;20202;-89
2023/07/07 01:23:40;;;;;;;10.32;8.75;;;33.40;96.50;;;;;;4880393;29;20321;-88
2023/07/07 01:26:43;;;;;;;10.95;8.27;;;33.80;95.00;;;;;;4882927;29;20221;-89
2023/07/07 01:29:31;;;;;;;18.55;8.50;;;33.80;95.20;;;;;;4882206;29;20210;-89
2023/07/07 01:32:09;;;;;;;15.85;8.38;;;33.80;94.90;;;;;;4879099;29;20215;-88
2023/07/07 01:34:42;;;;;;;15.65;7.13;;;33.90;95.50;;;;;;4885595;29;20667;-88
2023/07/07 01:37:14;;;;;;;10.15;7.65;;;34.00;94.70;;;;;;4882120;29;20242;-89
2023/07/07 01:39:47;;;;;;;9.30;8.32;;;34.20;93.90;;;;;;4879265;29;20301;-89
2023/07/07 01:42:25;;;;;;;9.32;7.70;;;34.00;94.10;;;;;;4879540;29;20714;-89
2023/07/07 01:45:04;;;;;;;8.48;7.55;;;34.20;94.70;;;;;;4881502;29;20273;-89
2023/07/07 01:47:41;;;;;;;10.07;8.00;;;34.30;93.40;;;;;;4884197;29;20244;-89
2023/07/07 01:50:18;;;;;;;12.57;7.80;;;34.20;93.10;;;;;;4881714;29;20289;-89
2023/07/07 01:52:53;;;;;;;8.80;7.20;;;33.10;93.50;;;;;;4869193;29;20659;-89
2023/07/07 01:55:29;;;;;;;8.13;7.32;;;33.30;93.60;;;;;;4880522;29;20301;-87
2023/07/07 01:58:03;;;;;;;12.75;7.78;;;33.50;93.20;;;;;;4880202;29;20742;-87
2023/07/07 02:00:34;;;;;;;10.38;7.47;;;33.60;93.40;;;;;;4869378;29;20238;-87
2023/07/07 02:03:12;;;;;;;8.20;7.32;;;33.60;93.90;;;;;;4880908;29;20234;-87
2023/07/07 02:05:43;;;;;;;8.23;7.30;;;33.60;94.20;;;;;;4881513;29;20244;-88
2023/07/07 02:08:15;;;;;;;10.80;7.50;;;33.20;94.60;;;;;;4883641;29;20269;-88
2023/07/07 02:10:46;;;;;;;10.32;7.70;;;32.70;94.30;;;;;;4894177;29;20214;-88
2023/07/07 02:13:17;;;;;;;11.68;8.05;;;32.10;94.70;;;;;;4893147;29;20220;-86
2023/07/07 02:15:50;;;;;;;9.35;7.43;;;31.50;96.00;;;;;;4888963;29;20210;-88
2023/07/07 02:18:27;;;;;;;10.73;7.05;;;31.00;96.60;;;;;;4886088;29;20246;-86
2023/07/07 02:20:58;;;;;;;11.35;7.25;;;30.60;96.80;;;;;;4886832;29;20209;-86
2023/07/07 02:23:30;;;;;;;12.68;7.63;;;30.40;97.20;;;;;;4884949;29;20241;-86
2023/07/07 02:26:01;;;;;;;8.10;6.45;;;30.10;98.00;;;;;;4884374;29;20206;-89
2023/07/07 02:28:33;;;;;;;8.38;6.82;;;29.80;98.10;;;;;;4884531;29;20297;-87
2023/07/07 02:31:04;;;;;;;9.80;6.30;;;29.60;98.40;;;;;;4882884;29;20275;-88
2023/07/07 02:33:38;;;;;;;8.30;6.45;;;29.40;98.50;;;;;;4884142;29;20213;-89
2023/07/07 02:36:11;;;;;;;10.95;6.70;;;29.30;98.60;;;;;;4882306;29;20326;-87
2023/07/07 02:38:42;;;;;;;13.30;7.47;;;29.00;99.10;;;;;;4875726;29;20301;-88
2023/07/07 02:41:13;;;;;;;7.55;6.47;;;28.70;99.90;;;;;;4882972;29;20240;-88
2023/07/07 02:43:44;;;;;;;11.32;6.82;;;28.50;99.90;;;;;;4883958;29;20262;-87
2023/07/07 02:46:16;;;;;;;8.95;6.97;;;28.40;99.80;;;;;;4882385;29;20218;-87
2023/07/07 02:48:48;;;;;;;10.10;6.80;;;28.30;99.90;;;;;;4877601;29;20210;-89
2023/07/07 02:51:20;;;;;;;9.70;6.93;;;28.10;99.90;;;;;;4885051;29;20331;-87
2023/07/07 02:53:51;;;;;;;9.25;7.28;;;27.90;99.60;;;;;;4892199;29;20253;-89
2023/07/07 02:56:23;;;;;;;9.68;7.57;;;27.80;99.80;;;;;;4897545;29;20203;-86
2023/07/07 02:58:57;;;;;;;9.33;7.07;;;27.60;99.90;;;;;;4895779;29;20205;-86
2023/07/07 03:01:28;;;;;;;7.90;7.03;;;27.50;99.90;;;;;;4889515;29;20679;-87
2023/07/07 03:04:03;;;;;;;11.80;7.10;;;27.40;99.90;;;;;;4885542;29;20253;-92
2023/07/07 03:06:36;;;;;;;7.97;7.17;;;27.30;99.90;;;;;;4883483;29;20282;-86
2023/07/07 03:09:07;;;;;;;8.77;7.03;;;27.10;99.90;;;;;;4880958;29;20221;-86
2023/07/07 03:11:39;;;;;;;11.13;7.00;;;27.00;99.90;;;;;;4888658;29;20215;-87
2023/07/07 03:14:10;;;;;;;9.80;7.10;;;26.90;99.90;;;;;;4881458;29;20218;-88
2023/07/07 03:16:47;;;;;;;10.13;6.87;;;26.80;99.90;;;;;;4883897;29;20333;-89
2023/07/07 03:19:20;;;;;;;10.17;6.80;;;26.70;99.90;;;;;;4878083;29;20229;-89
2023/07/07 03:21:54;;;;;;;11.43;6.33;;;26.70;99.90;;;;;;4876796;29;20298;-89
2023/07/07 03:24:27;;;;;;;9.03;6.47;;;26.40;99.90;;;;;;4887783;29;20238;-89
2023/07/07 03:26:58;;;;;;;11.17;7.00;;;26.20;99.90;;;;;;4881808;29;20218;-89
2023/07/07 03:29:29;;;;;;;8.27;6.63;;;26.20;99.90;;;;;;4881708;29;20233;-89
2023/07/07 03:32:01;;;;;;;13.37;6.53;;;26.00;99.90;;;;;;4885643;29;20206;-89
2023/07/07 03:34:36;;;;;;;7.03;5.97;;;25.90;99.90;;;;;;4883919;29;20206;-91
2023/07/07 03:37:08;;;;;;;9.97;5.83;;;25.80;99.90;;;;;;4880510;29;20273;-91
2023/07/07 03:39:40;;;;;;;13.53;8.03;;;25.70;99.90;;;;;;4881605;29;20214;-91
2023/07/07 03:42:11;;;;;;;16.83;8.70;;;25.50;99.90;;;;;;4883384;29;20206;-89
2023/07/07 03:44:44;;;;;;;8.53;6.57;;;25.30;99.90;;;;;;4880931;29;20676;-90
2023/07/07 03:47:17;;;;;;;9.87;7.13;;;25.10;99.90;;;;;;4885079;29;20296;-90
2023/07/07 03:49:53;;;;;;;8.23;6.50;;;25.00;99.90;;;;;;4891144;29;20327;-89
2023/07/07 03:52:25;;;;;;;11.63;6.03;;;24.90;99.90;;;;;;4880214;29;20210;-89
2023/07/07 03:54:57;;;;;;;8.40;5.83;;;24.70;99.90;;;;;;4879314;29;20245;-88
2023/07/07 03:57:28;;;;;;;12.13;6.23;;;24.60;99.90;;;;;;4883200;29;20221;-89
2023/07/07 04:00:00;;;;;;;9.90;6.20;;;24.50;99.90;;;;;;4881815;29;20234;-89
2023/07/07 04:02:32;;;;;;;10.80;7.30;;;24.40;99.90;;;;;;4880598;29;20286;-88
2023/07/07 04:05:06;;;;;;;9.53;5.93;;;24.30;99.90;;;;;;4881105;29;20325;-89
2023/07/07 04:07:38;;;;;;;8.47;6.27;;;24.30;99.90;;;;;;4883088;29;20266;-89
2023/07/07 04:10:10;;;;;;;9.03;6.17;;;24.10;99.90;;;;;;4873596;29;20215;-90
2023/07/07 04:12:42;;;;;;;10.50;6.50;;;24.10;99.90;;;;;;4883251;29;20238;-89
2023/07/07 04:15:14;;;;;;;10.40;6.03;;;23.90;99.90;;;;;;4881374;29;20214;-89
2023/07/07 04:17:45;;;;;;;9.33;6.60;;;23.80;99.90;;;;;;4884494;29;20246;-89
2023/07/07 04:20:19;;;;;;;9.03;6.60;;;23.60;99.90;;;;;;4884787;29;20262;-89
2023/07/07 04:22:50;;;;;;;9.50;6.13;;;23.60;99.90;;;;;;4883495;29;20210;-89
2023/07/07 04:25:22;;;;;;;9.57;6.23;;;23.50;99.90;;;;;;4891583;29;20227;-89
2023/07/07 04:27:55;;;;;;;13.57;6.10;;;23.40;99.90;;;;;;4892658;29;20235;-89
2023/07/07 04:30:26;;;;;;;13.23;7.53;;;23.30;99.90;;;;;;4890645;29;20221;-90
2023/07/07 04:32:58;;;;;;;10.43;6.73;;;23.30;99.90;;;;;;4885705;29;20249;-89
2023/07/07 04:35:36;;;;;;;11.23;7.47;;;23.20;99.90;;;;;;4874419;29;20274;-89
2023/07/07 04:38:07;;;;;;;12.63;6.47;;;23.10;99.90;;;;;;4877216;29;20218;-90
2023/07/07 04:40:39;;;;;;;11.80;6.83;;;23.10;99.90;;;;;;4884722;29;20213;-90
2023/07/07 04:43:10;;;;;;;11.57;7.40;;;23.00;99.90;;;;;;4878808;29;20237;-89
2023/07/07 04:45:41;;;;;;;10.10;6.63;;;22.90;99.90;;;;;;4885859;29;20626;-90
2023/07/07 04:48:12;;;;;;;10.87;6.70;;;22.90;99.90;;;;;;4882373;29;20261;-90
2023/07/07 04:50:47;;;;;;;9.93;6.30;;;22.80;99.90;;;;;;4883324;29;20219;-90
2023/07/07 04:53:21;;;;;;;9.60;6.47;;;22.80;99.90;;;;;;4880748;29;20666;-90
2023/07/07 04:55:52;;;;;;;9.47;6.43;;;22.70;99.90;;;;;;4880181;29;20209;-90
2023/07/07 04:58:25;;;;;;;9.83;5.67;;;22.70;99.90;;;;;;4876432;29;20206;-90
2023/07/07 05:01:06;;;;;;;11.03;6.30;;;22.60;99.90;;;;;;4885666;29;20214;-90
2023/07/07 05:03:38;;;;;;;13.57;5.73;;;22.60;99.90;;;;;;4889412;29;20234;-90
2023/07/07 05:06:14;;;;;;;12.23;5.67;;;22.50;99.90;;;;;;4882534;29;20667;-89
2023/07/07 05:08:46;;;;;;;14.67;5.50;;;22.40;99.90;;;;;;4872176;29;20203;-89
2023/07/07 05:11:20;;;;;;;12.30;5.30;;;22.40;99.90;;;;;;4883157;29;20241;-90
2023/07/07 05:13:53;;;;;;;8.90;4.97;;;22.30;99.90;;;;;;4882147;29;20285;-90
2023/07/07 05:16:26;;;;;;;10.67;5.17;;;22.20;99.90;;;;;;4880751;29;20230;-89
2023/07/07 05:18:58;;;;;;;12.97;5.60;;;22.20;99.90;;;;;;4884447;29;20331;-90
2023/07/07 05:21:31;;;;;;;12.57;5.53;;;22.10;99.90;;;;;;4882249;29;20221;-90
2023/07/07 05:24:04;;;;;;;12.40;5.40;;;21.90;99.90;;;;;;4874350;29;20241;-90
2023/07/07 05:26:35;;;;;;;12.77;5.50;;;21.90;99.90;;;;;;4879175;29;20238;-90
2023/07/07 05:29:07;;;;;;;12.07;5.63;;;21.80;99.90;;;;;;4881475;29;20232;-90
2023/07/07 05:31:40;;;;;;;9.63;4.87;;;21.70;99.90;;;;;;4883979;29;20202;-89
2023/07/07 05:34:11;;;;;;;12.43;5.07;;;21.70;99.90;;;;;;4881689;29;20218;-90
2023/07/07 05:36:45;;;;;;;11.63;5.30;;;21.60;99.90;;;;;;4878009;29;20228;-89
2023/07/07 05:39:17;;;;;;;14.27;5.73;;;21.50;99.90;;;;;;4873828;29;20203;-90
2023/07/07 05:41:50;;;;;;;13.37;5.73;;;21.40;99.90;;;;;;4887688;29;20262;-89
2023/07/07 05:44:21;;;;;;;15.53;5.20;;;21.40;99.90;;;;;;4879763;29;20691;-91
2023/07/07 05:46:53;;;;;;;16.60;5.33;;;21.30;99.90;;;;;;4877088;29;20671;-89
2023/07/07 05:49:25;;;;;;;11.17;4.97;;;21.20;99.90;;;;;;4885687;29;20541;-89
2023/07/07 05:51:59;;;;;;;13.47;5.53;;;21.20;99.90;;;;;;4883131;29;20214;-90
2023/07/07 05:54:31;;;;;;;12.17;4.90;;;21.10;99.90;;;;;;4880926;29;20304;-90
2023/07/07 05:57:03;;;;;;;15.20;4.77;;;21.00;99.90;;;;;;4887059;29;20210;-88
2023/07/07 05:59:34;;;;;;;16.20;5.43;;;20.90;99.90;;;;;;4891727;29;20210;-88
2023/07/07 06:02:08;;;;;;;11.03;4.87;;;20.90;99.90;;;;;;4884416;29;20211;-88
2023/07/07 06:04:41;;;;;;;11.97;4.83;;;20.80;99.90;;;;;;4888332;29;20604;-90
2023/07/07 06:07:15;;;;;;;14.83;4.80;;;20.70;99.90;;;;;;4886242;29;20685;-89
2023/07/07 06:09:57;;;;;;;13.87;4.30;;;20.60;99.90;;;;;;4877058;29;20218;-89
2023/07/07 06:12:32;;;;;;;14.90;5.30;;;20.50;99.90;;;;;;4879263;29;20575;-89
2023/07/07 06:15:06;;;;;;;14.83;4.80;;;20.40;99.90;;;;;;4885526;29;20210;-89
2023/07/07 06:17:38;;;;;;;14.30;5.10;;;20.30;99.90;;;;;;4884447;29;20218;-89
2023/07/07 06:20:11;;;;;;;14.67;4.27;;;20.30;99.90;;;;;;4891933;29;20210;-89
2023/07/07 06:22:46;;;;;;;13.27;4.23;;;20.10;99.90;;;;;;4885091;29;20227;-89
2023/07/07 06:25:19;;;;;;;17.00;4.83;;;20.10;99.90;;;;;;4884563;29;20237;-89
2023/07/07 06:27:51;;;;;;;13.77;4.30;;;19.90;99.90;;;;;;4885946;29;20310;-88
2023/07/07 06:30:23;;;;;;;15.87;5.00;;;19.90;99.90;;;;;;4888177;29;20225;-90
2023/07/07 06:32:58;;;;;;;15.60;4.93;;;19.90;99.90;;;;;;4890110;29;20211;-91
2023/07/07 06:35:31;;;;;;;13.10;4.77;;;19.80;99.90;;;;;;4897314;29;20202;-88
2023/07/07 06:38:05;;;;;;;12.70;4.13;;;19.70;99.90;;;;;;4903978;29;20214;-88
2023/07/07 06:40:36;;;;;;;15.23;5.33;;;19.60;99.90;;;;;;4904773;29;20218;-88
2023/07/07 06:43:12;;;;;;;16.80;4.90;;;19.50;99.90;;;;;;4896937;29;20315;-88
2023/07/07 06:45:44;;;;;;;12.93;4.80;;;19.50;99.90;;;;;;4887188;29;20273;-89
2023/07/07 06:48:16;;;;;;;13.63;4.40;;;19.40;99.90;;;;;;4901895;29;20213;-89
2023/07/07 06:50:48;;;;;;;14.63;4.63;;;19.40;99.90;;;;;;4890819;29;20248;-89
2023/07/07 06:53:21;;;;;;;12.90;4.67;;;19.30;99.90;;;;;;4883879;29;20207;-89
2023/07/07 06:55:53;;;;;;;14.73;5.00;;;19.20;99.90;;;;;;4877612;29;20234;-89
2023/07/07 06:58:25;;;;;;;12.80;4.40;;;19.10;99.90;;;;;;4864449;29;20219;-88
2023/07/07 07:00:57;;;;;;;14.17;5.07;;;19.00;99.90;;;;;;4864249;29;20303;-88
2023/07/07 07:03:29;;;;;;;14.47;5.23;;;18.90;99.90;;;;;;4878946;29;20263;-89
2023/07/07 07:06:01;;;;;;;14.77;5.23;;;18.90;99.90;;;;;;4876690;29;20708;-89
2023/07/07 07:08:35;;;;;;;18.00;5.07;;;18.80;99.90;;;;;;4881211;29;20207;-89
2023/07/07 07:11:08;;;;;;;14.27;4.50;;;18.60;99.90;;;;;;4881765;29;20222;-88
2023/07/07 07:13:40;;;;;;;14.33;4.90;;;18.50;99.90;;;;;;4881722;29;20237;-89
2023/07/07 07:16:12;;;;;;;16.03;4.83;;;18.50;99.90;;;;;;4884154;29;20225;-89
2023/07/07 07:18:43;;;;;;;16.97;4.97;;;18.40;99.90;;;;;;4865076;29;20264;-89
2023/07/07 07:21:16;;;;;;;15.97;4.90;;;18.30;99.90;;;;;;4884679;29;20274;-88
2023/07/07 07:23:50;;;;;;;15.17;4.60;;;18.20;99.90;;;;;;4889617;29;20214;-89
2023/07/07 07:26:22;;;;;;;12.57;4.90;;;18.10;99.90;;;;;;4882011;29;20242;-88
2023/07/07 07:28:53;;;;;;;12.00;4.33;;;18.10;99.90;;;;;;4880933;29;20219;-89
2023/07/07 07:31:26;;;;;;;16.83;5.57;;;18.00;99.90;;;;;;4880522;29;20214;-88
2023/07/07 07:34:18;;;;;;;20.63;5.33;;;17.80;99.90;;;;;;4879469;29;20218;-89
2023/07/07 07:36:49;;;;;;;15.70;5.03;;;17.70;99.90;;;;;;4870434;29;20239;-89
2023/07/07 07:39:23;;;;;;;11.87;4.73;;;17.70;99.90;;;;;;4875743;29;20209;-89
2023/07/07 07:41:56;;;;;;;19.67;5.23;;;17.70;99.90;;;;;;4881355;29;20236;-89
2023/07/07 07:44:27;;;;;;;20.17;5.63;;;17.60;99.90;;;;;;4872368;29;20214;-90
2023/07/07 07:47:00;;;;;;;14.40;5.17;;;17.60;99.90;;;;;;4877027;29;20206;-89
2023/07/07 07:49:32;;;;;;;15.43;5.03;;;17.60;99.90;;;;;;4882436;29;20225;-89
2023/07/07 07:52:05;;;;;;;13.43;4.90;;;17.60;99.90;;;;;;4884044;29;20210;-86
2023/07/07 07:54:38;;;;;;;14.13;4.33;;;17.50;99.90;;;;;;4881950;29;20211;-88
2023/07/07 07:57:10;;;;;;;16.30;5.40;;;17.50;99.90;;;;;;4883459;29;20565;-88
2023/07/07 07:59:42;;;;;;;19.10;4.80;;;17.50;99.90;;;;;;4887275;29;20566;-89
2023/07/07 08:02:13;;;;;;;16.57;5.37;;;17.50;99.90;;;;;;4885012;29;20220;-89
2023/07/07 08:04:46;;;;;;;14.30;4.70;;;17.30;99.90;;;;;;4873648;29;20215;-89
2023/07/07 08:07:17;;;;;;;13.63;4.87;;;17.30;99.90;;;;;;4881196;29;20210;-89
2023/07/07 08:09:51;;;;;;;14.67;4.37;;;17.10;99.90;;;;;;4881054;29;20310;-89
2023/07/07 08:12:23;;;;;;;17.27;5.00;;;17.10;99.90;;;;;;4896156;29;20230;-89
2023/07/07 08:14:55;;;;;;;16.90;4.93;;;17.00;99.90;;;;;;4880806;29;20270;-89
2023/07/07 08:17:27;;;;;;;20.57;5.30;;;16.90;99.90;;;;;;4885142;29;20214;-90
2023/07/07 08:19:59;;;;;;;15.83;4.93;;;16.80;99.90;;;;;;4896127;29;20198;-89
2023/07/07 08:22:31;;;;;;;17.20;5.20;;;16.80;99.90;;;;;;4901772;29;20203;-90
2023/07/07 08:25:04;;;;;;;18.13;5.23;;;16.70;99.90;;;;;;4896315;29;20295;-89
2023/07/07 08:27:38;;;;;;;14.87;4.80;;;16.60;99.90;;;;;;4888433;29;20639;-89
2023/07/07 08:30:11;;;;;;;21.47;5.87;;;16.60;99.90;;;;;;4884306;29;20592;-90
2023/07/07 08:32:42;;;;;;;18.70;5.10;;;16.30;99.90;;;;;;4883879;29;20206;-90
2023/07/07 08:35:14;;;;;;;14.63;4.77;;;16.20;99.90;;;;;;4883000;29;20273;-89
2023/07/07 08:37:46;;;;;;;17.67;5.30;;;16.20;99.90;;;;;;4881470;29;20242;-89
2023/07/07 08:40:23;;;;;;;16.60;4.63;;;16.10;99.90;;;;;;4882001;29;20214;-90
2023/07/07 08:42:55;;;;;;;22.53;5.00;;;16.20;99.90;;;;;;4881746;29;20396;-90
2023/07/07 08:45:26;;;;;;;18.73;5.00;;;16.10;99.90;;;;;;4882033;29;20226;-90
2023/07/07 08:48:08;;;;;;;16.73;5.43;;;16.00;99.90;;;;;;4882228;29;20214;-89
2023/07/07 08:50:44;;;;;;;17.87;5.23;;;16.00;99.90;;;;;;4896595;29;20248;-88
2023/07/07 08:53:43;;;;;;;17.73;5.00;;;16.00;99.90;;;;;;4902427;29;20204;-89
2023/07/07 08:56:25;;;;;;;15.57;4.60;;;16.00;99.90;;;;;;4895594;29;20290;-88
2023/07/07 08:59:10;;;;;;;13.97;4.10;;;15.90;99.90;;;;;;4882677;29;20235;-88
2023/07/07 09:01:52;;;;;;;15.77;4.67;;;15.80;99.90;;;;;;4880821;29;20236;-89
2023/07/07 09:04:33;;;;;;;23.13;5.63;;;15.70;99.90;;;;;;4880154;29;20277;-89
2023/07/07 09:07:32;;;;;;;14.17;4.27;;;15.60;99.90;;;;;;4880376;29;20245;-88
2023/07/07 09:10:22;;;;;;;14.17;4.67;;;15.60;99.90;;;;;;4881176;29;20210;-88
2023/07/07 09:13:00;;;;;;;11.17;4.80;;;15.60;99.90;;;;;;4880200;29;20672;-89
2023/07/07 09:15:36;;;;;;;15.57;4.93;;;15.50;99.90;;;;;;4880928;29;20210;-88
2023/07/07 09:18:22;;;;;;;16.37;4.50;;;15.40;99.90;;;;;;4863042;29;20221;-89
2023/07/07 09:20:58;;;;;;;15.23;4.90;;;15.30;99.90;;;;;;4889999;29;20293;-90
2023/07/07 09:23:34;;;;;;;12.20;4.23;;;15.40;99.90;;;;;;4872203;29;20225;-90
2023/07/07 09:26:09;;;;;;;17.27;5.10;;;15.30;99.90;;;;;;4880416;29;20696;-89
2023/07/07 09:28:47;;;;;;;16.50;4.70;;;15.30;99.90;;;;;;4880277;29;20206;-88
2023/07/07 09:31:30;;;;;;;14.13;4.50;;;15.30;99.90;;;;;;4879686;29;20210;-88
2023/07/07 09:34:04;;;;;;;20.43;4.90;;;15.30;99.90;;;;;;4880362;29;20210;-88
2023/07/07 09:36:43;;;;;;;13.67;5.10;;;15.30;99.90;;;;;;4865686;29;20214;-88
2023/07/07 09:39:40;;;;;;;17.90;5.47;;;15.20;99.90;;;;;;4882825;29;20568;-88
2023/07/07 09:42:24;;;;;;;19.63;5.10;;;15.10;99.90;;;;;;4881798;29;20274;-89
2023/07/07 09:45:08;;;;;;;21.27;5.33;;;15.10;99.90;;;;;;4880312;29;20232;-89
2023/07/07 09:47:46;;;;;;;18.77;4.77;;;15.00;99.90;;;;;;4879624;29;20238;-90
2023/07/07 09:50:21;;;;;;;18.20;4.83;;;15.00;99.90;;;;;;4876525;29;20620;-89
2023/07/07 09:53:01;;;;;;;16.70;5.13;;;14.90;99.90;;;;;;4877518;29;20301;-88
2023/07/07 09:55:50;;;;;;;17.37;5.00;;;14.90;99.90;;;;;;4868517;29;20290;-88
2023/07/07 09:58:27;;;;;;;14.97;4.57;;;14.90;99.90;;;;;;4878923;29;20214;-89
2023/07/07 10:01:05;;;;;;;14.83;4.50;;;14.90;99.90;;;;;;4893748;29;20222;-88
2023/07/07 10:03:39;;;;;;;14.20;4.60;;;14.90;99.90;;;;;;4879678;29;20246;-88
2023/07/07 10:06:19;;;;;;;19.93;4.73;;;14.80;99.90;;;;;;4887931;29;20229;-89
2023/07/07 10:08:51;;;;;;;12.60;4.77;;;14.90;99.90;;;;;;4880941;29;20304;-89
2023/07/07 10:11:24;;;;;;;14.33;4.53;;;14.80;99.90;;;;;;4878684;29;20207;-89
2023/07/07 10:14:00;;;;;;;12.17;4.10;;;14.80;99.90;;;;;;4879741;29;20214;-89
2023/07/07 10:16:48;;;;;;;18.00;5.20;;;14.80;99.90;;;;;;4878974;29;20214;-89
2023/07/07 10:19:21;;;;;;;12.33;4.20;;;14.80;99.90;;;;;;4876570;29;20222;-89
2023/07/07 10:21:53;;;;;;;14.70;5.10;;;14.80;99.90;;;;;;4866744;29;20215;-89
2023/07/07 10:24:24;;;;;;;17.97;4.67;;;14.80;99.90;;;;;;4876243;29;20210;-89
2023/07/07 10:26:57;;;;;;;17.10;5.13;;;14.80;99.90;;;;;;4880111;29;20242;-90
2023/07/07 10:29:36;;;;;;;16.87;5.20;;;14.70;99.90;;;;;;4878794;29;20301;-89
2023/07/07 10:32:14;;;;;;;15.43;4.87;;;14.70;99.90;;;;;;4879681;29;20214;-90
2023/07/07 10:34:48;;;;;;;14.43;4.37;;;14.70;99.90;;;;;;4882292;29;20236;-89
2023/07/07 10:37:23;;;;;;;16.57;5.10;;;14.70;99.90;;;;;;4876240;29;20250;-89
2023/07/07 10:39:55;;;;;;;13.63;4.70;;;14.70;99.90;;;;;;4883238;29;20213;-90
2023/07/07 10:42:29;;;;;;;11.70;3.67;;;14.60;99.90;;;;;;4894823;29;20205;-89
2023/07/07 10:45:03;;;;;;;17.17;5.03;;;14.60;99.90;;;;;;4881755;29;20735;-89
2023/07/07 10:47:42;;;;;;;15.37;4.50;;;14.60;99.90;;;;;;4877404;29;20245;-88
2023/07/07 10:50:20;;;;;;;18.57;5.10;;;14.50;99.90;;;;;;4886623;29;20289;-90
2023/07/07 10:53:11;;;;;;;13.03;4.50;;;14.50;99.90;;;;;;4872297;29;20241;-88
2023/07/07 10:56:22;;;;;;;24.40;5.03;;;14.40;99.90;;;;;;4868512;29;20656;-89
2023/07/07 10:59:21;;;;;;;17.27;4.27;;;14.40;99.90;;;;;;4862807;29;20207;-90
2023/07/07 11:02:06;;;;;;;18.47;5.50;;;14.40;99.90;;;;;;4876371;29;20751;-89
2023/07/07 11:05:06;;;;;;;19.83;5.47;;;14.40;99.90;;;;;;4892329;29;20225;-88
2023/07/07 11:07:46;;;;;;;18.23;5.43;;;14.30;99.90;;;;;;4904194;29;20249;-90
2023/07/07 11:10:35;;;;;;;16.87;4.77;;;14.20;99.90;;;;;;4898303;29;20207;-88
2023/07/07 11:13:13;;;;;;;18.27;5.23;;;14.20;99.90;;;;;;4867344;29;20215;-89
2023/07/07 11:15:51;;;;;;;22.17;6.07;;;14.20;99.90;;;;;;4884480;29;20682;-90
2023/07/07 11:18:37;;;;;;;16.70;5.73;;;14.10;99.90;;;;;;4892067;29;20206;-89
2023/07/07 11:21:24;;;;;;;19.13;5.50;;;14.10;99.90;;;;;;4887139;29;20249;-90
2023/07/07 11:24:14;;;;;;;16.53;5.57;;;14.10;99.90;;;;;;4875270;29;20225;-90
2023/07/07 11:27:48;;;;;;;17.27;5.77;;;14.10;99.90;;;;;;4880612;29;20233;-90
2023/07/07 11:30:28;;;;;;;19.03;5.57;;;14.00;99.90;;;;;;4882776;29;20206;-90
2023/07/07 11:33:11;;;;;;;20.30;5.67;;;14.10;99.90;;;;;;4881315;29;20214;-90
2023/07/07 11:35:59;;;;;;;20.63;6.47;;;14.10;99.90;;;;;;4882276;29;20210;-89
2023/07/07 11:39:03;;;;;;;12.77;4.93;;;14.10;99.90;;;;;;4886984;29;20272;-89
2023/07/07 11:41:49;;;;;;;20.23;6.27;;;14.10;99.90;;;;;;4881324;29;20214;-91
2023/07/07 11:44:35;;;;;;;16.57;6.57;;;14.00;99.90;;;;;;4882044;29;20210;-90
2023/07/07 11:47:36;;;;;;;20.93;6.37;;;14.00;99.90;;;;;;4888863;29;20263;-89
2023/07/07 11:50:21;;;;;;;24.23;6.53;;;14.00;99.90;;;;;;4881524;29;20205;-90
2023/07/07 11:53:23;;;;;;;17.90;6.23;;;13.90;99.90;;;;;;4878754;29;20583;-90
2023/07/07 11:56:10;;;;;;;15.10;5.90;;;13.80;99.90;;;;;;4878260;29;20308;-90
2023/07/07 11:58:50;;;;;;;12.97;5.80;;;13.80;99.90;;;;;;4870377;29;20569;-90
2023/07/07 12:01:39;;;;;;;18.77;6.07;;;13.90;99.90;;;;;;4880884;29;20651;-90
2023/07/07 12:04:20;;;;;;;17.70;6.80;;;13.90;99.90;;;;;;4880998;29;20264;-89
2023/07/07 12:06:54;;;;;;;18.03;6.73;;;13.90;99.90;;;;;;4881125;29;20225;-89
2023/07/07 12:09:37;;;;;;;18.90;6.37;;;13.90;99.90;;;;;;4881663;29;20313;-90
2023/07/07 12:12:16;;;;;;;19.00;6.57;;;13.90;99.90;;;;;;4863567;29;20203;-89
2023/07/07 12:14:56;;;;;;;19.33;6.30;;;13.90;99.90;;;;;;4880660;29;20604;-89
2023/07/07 12:17:36;;;;;;;22.17;6.50;;;13.90;99.90;;;;;;4894478;29;20299;-89
2023/07/07 12:20:14;;;;;;;19.10;6.57;;;13.90;99.90;;;;;;4880238;29;20214;-89
2023/07/07 12:22:47;;;;;;;17.67;6.27;;;14.00;99.90;;;;;;4884488;29;20300;-89
2023/07/07 12:25:26;;;;;;;16.97;6.30;;;14.00;99.90;;;;;;4888086;29;20736;-91
2023/07/07 12:28:00;;;;;;;18.93;6.03;;;14.10;99.90;;;;;;4880645;29;20714;-90
2023/07/07 12:30:32;;;;;;;20.53;6.40;;;14.10;99.90;;;;;;4881124;29;20647;-90
2023/07/07 12:33:05;;;;;;;15.77;6.07;;;14.10;99.90;;;;;;4880657;29;20222;-89
2023/07/07 12:35:48;;;;;;;18.43;6.60;;;14.10;99.90;;;;;;4894421;29;20300;-89
2023/07/07 12:38:25;;;;;;;23.23;6.53;;;14.10;99.90;;;;;;4900320;29;20213;-91
2023/07/07 12:40:58;;;;;;;14.33;5.00;;;14.10;99.90;;;;;;4896328;29;20234;-90
2023/07/07 12:43:35;;;;;;;17.13;6.10;;;14.20;99.90;;;;;;4871196;29;20213;-89
2023/07/07 12:46:25;;;;;;;20.20;5.60;;;14.30;99.90;;;;;;4881107;29;20218;-89
2023/07/07 12:49:00;;;;;;;15.43;5.00;;;14.30;99.90;;;;;;4855576;29;20332;-91
2023/07/07 12:51:37;;;;;;;14.90;5.37;;;14.20;99.90;;;;;;4872949;29;20707;-91
2023/07/07 12:54:12;;;;;;;14.97;5.73;;;14.20;99.90;;;;;;4882199;29;20296;-91
2023/07/07 12:57:02;;;;;;;18.10;5.63;;;14.20;99.90;;;;;;4876891;29;20305;-89
2023/07/07 12:59:41;;;;;;;15.80;5.23;;;14.20;99.90;;;;;;4871120;29;20228;-89
2023/07/07 13:02:20;;;;;;;13.13;4.37;;;14.30;99.90;;;;;;4880149;29;20222;-88
2023/07/07 13:04:56;;;;;;;18.10;5.30;;;14.20;99.90;;;;;;4879648;29;20763;-89
2023/07/07 13:07:33;;;;;;;18.10;5.60;;;14.20;99.90;;;;;;4881279;29;20655;-90
2023/07/07 13:10:25;;;;;;;15.90;4.83;;;14.10;99.90;;;;;;4864473;29;20206;-89
2023/07/07 13:13:06;;;;;;;12.97;4.57;;;14.30;99.90;;;;;;4866607;29;20213;-91
2023/07/07 13:15:40;;;;;;;18.33;4.80;;;14.40;99.90;;;;;;4881942;29;20213;-89
2023/07/07 13:18:14;;;;;;;14.53;5.13;;;14.30;99.90;;;;;;4884508;29;20260;-89
2023/07/07 13:20:49;;;;;;;12.20;4.53;;;14.30;99.90;;;;;;4892925;29;20305;-91
2023/07/07 13:23:29;;;;;;;10.37;4.00;;;14.30;99.90;;;;;;4890638;29;20213;-90